sensor_id;sensor_type;location;lat;lon;timestamp;P1;durP1;ratioP1;P2;durP2;ratioP2
82760;SDS011;72498;42.022;21.444;2024-03-08T00:01:59;15.88;;;7.35;;
82760;SDS011;72498;42.022;21.444;2024-03-08T00:04:26;28.13;;;10.48;;
82760;SDS011;72498;42.022;21.444;2024-03-08T00:06:52;19.63;;;6.75;;
82760;SDS011;72498;42.022;21.444;2024-03-08T00:09:19;14.38;;;6.60;;
82760;SDS011;72498;42.022;21.444;2024-03-08T00:11:51;14.30;;;6.50;;
82760;SDS011;72498;42.022;21.444;2024-03-08T00:14:21;12.48;;;6.22;;
82760;SDS011;72498;42.022;21.444;2024-03-08T00:16:51;16.25;;;6.10;;
82760;SDS011;72498;42.022;21.444;2024-03-08T00:19:19;13.45;;;6.35;;
82760;SDS011;72498;42.022;21.444;2024-03-08T00:21:45;17.38;;;9.13;;
82760;SDS011;72498;42.022;21.444;2024-03-08T00:24:13;17.42;;;8.80;;
82760;SDS011;72498;42.022;21.444;2024-03-08T00:26:39;18.17;;;9.52;;
82760;SDS011;72498;42.022;21.444;2024-03-08T00:29:08;18.98;;;9.80;;
82760;SDS011;72498;42.022;21.444;2024-03-08T00:31:38;22.55;;;10.57;;
82760;SDS011;72498;42.022;21.444;2024-03-08T00:34:06;23.08;;;13.52;;
82760;SDS011;72498;42.022;21.444;2024-03-08T00:36:32;21.70;;;13.57;;
82760;SDS011;72498;42.022;21.444;2024-03-08T00:38:59;30.73;;;16.35;;
82760;SDS011;72498;42.022;21.444;2024-03-08T00:41:25;30.17;;;17.20;;
82760;SDS011;72498;42.022;21.444;2024-03-08T00:43:53;35.45;;;18.40;;
82760;SDS011;72498;42.022;21.444;2024-03-08T00:46:19;39.45;;;21.48;;
82760;SDS011;72498;42.022;21.444;2024-03-08T00:48:46;47.30;;;27.88;;
82760;SDS011;72498;42.022;21.444;2024-03-08T00:51:14;63.42;;;38.42;;
82760;SDS011;72498;42.022;21.444;2024-03-08T00:53:41;80.97;;;50.05;;
82760;SDS011;72498;42.022;21.444;2024-03-08T00:56:08;73.82;;;43.33;;
82760;SDS011;72498;42.022;21.444;2024-03-08T00:58:36;50.55;;;32.35;;
82760;SDS011;72498;42.022;21.444;2024-03-08T01:01:04;44.95;;;26.05;;
82760;SDS011;72498;42.022;21.444;2024-03-08T01:03:30;36.33;;;22.40;;
82760;SDS011;72498;42.022;21.444;2024-03-08T01:05:58;36.08;;;20.70;;
82760;SDS011;72498;42.022;21.444;2024-03-08T01:08:26;43.10;;;25.98;;
82760;SDS011;72498;42.022;21.444;2024-03-08T01:10:53;37.33;;;23.13;;
82760;SDS011;72498;42.022;21.444;2024-03-08T01:13:19;33.85;;;19.13;;
82760;SDS011;72498;42.022;21.444;2024-03-08T01:15:46;32.47;;;19.52;;
82760;SDS011;72498;42.022;21.444;2024-03-08T01:18:12;36.35;;;19.38;;
82760;SDS011;72498;42.022;21.444;2024-03-08T01:20:38;35.67;;;19.13;;
82760;SDS011;72498;42.022;21.444;2024-03-08T01:23:06;33.60;;;18.77;;
82760;SDS011;72498;42.022;21.444;2024-03-08T01:25:33;24.27;;;13.30;;
82760;SDS011;72498;42.022;21.444;2024-03-08T01:28:02;32.08;;;13.85;;
82760;SDS011;72498;42.022;21.444;2024-03-08T01:30:29;31.73;;;13.65;;
82760;SDS011;72498;42.022;21.444;2024-03-08T01:32:57;27.77;;;15.68;;
82760;SDS011;72498;42.022;21.444;2024-03-08T01:35:24;29.98;;;15.82;;
82760;SDS011;72498;42.022;21.444;2024-03-08T01:37:51;28.23;;;16.02;;
82760;SDS011;72498;42.022;21.444;2024-03-08T01:40:17;33.05;;;16.00;;
82760;SDS011;72498;42.022;21.444;2024-03-08T01:42:44;32.22;;;14.95;;
82760;SDS011;72498;42.022;21.444;2024-03-08T01:45:10;25.73;;;14.55;;
82760;SDS011;72498;42.022;21.444;2024-03-08T01:47:36;22.92;;;13.30;;
82760;SDS011;72498;42.022;21.444;2024-03-08T01:50:03;21.08;;;12.00;;
82760;SDS011;72498;42.022;21.444;2024-03-08T01:52:31;22.67;;;12.13;;
82760;SDS011;72498;42.022;21.444;2024-03-08T01:55:01;22.20;;;11.60;;
82760;SDS011;72498;42.022;21.444;2024-03-08T01:57:29;24.17;;;11.50;;
82760;SDS011;72498;42.022;21.444;2024-03-08T01:59:59;28.23;;;12.05;;
82760;SDS011;72498;42.022;21.444;2024-03-08T02:02:28;21.45;;;11.35;;
82760;SDS011;72498;42.022;21.444;2024-03-08T02:04:56;22.23;;;11.30;;
82760;SDS011;72498;42.022;21.444;2024-03-08T02:07:22;24.73;;;12.43;;
82760;SDS011;72498;42.022;21.444;2024-03-08T02:09:48;24.42;;;10.93;;
82760;SDS011;72498;42.022;21.444;2024-03-08T02:12:16;23.70;;;11.27;;
82760;SDS011;72498;42.022;21.444;2024-03-08T02:14:42;21.02;;;11.02;;
82760;SDS011;72498;42.022;21.444;2024-03-08T02:17:10;25.50;;;11.68;;
82760;SDS011;72498;42.022;21.444;2024-03-08T02:19:37;23.02;;;10.80;;
82760;SDS011;72498;42.022;21.444;2024-03-08T02:22:03;21.73;;;10.98;;
82760;SDS011;72498;42.022;21.444;2024-03-08T02:24:30;24.65;;;12.85;;
82760;SDS011;72498;42.022;21.444;2024-03-08T02:26:56;27.30;;;13.32;;
82760;SDS011;72498;42.022;21.444;2024-03-08T02:29:22;18.95;;;10.35;;
82760;SDS011;72498;42.022;21.444;2024-03-08T02:31:50;21.13;;;10.10;;
82760;SDS011;72498;42.022;21.444;2024-03-08T02:34:17;20.23;;;10.10;;
82760;SDS011;72498;42.022;21.444;2024-03-08T02:36:43;19.00;;;10.25;;
82760;SDS011;72498;42.022;21.444;2024-03-08T02:39:10;17.85;;;8.63;;
82760;SDS011;72498;42.022;21.444;2024-03-08T02:41:36;17.10;;;8.60;;
82760;SDS011;72498;42.022;21.444;2024-03-08T02:44:02;18.08;;;9.20;;
82760;SDS011;72498;42.022;21.444;2024-03-08T02:46:29;21.85;;;9.93;;
82760;SDS011;72498;42.022;21.444;2024-03-08T02:48:55;18.67;;;9.52;;
82760;SDS011;72498;42.022;21.444;2024-03-08T02:51:21;20.55;;;9.35;;
82760;SDS011;72498;42.022;21.444;2024-03-08T02:53:48;21.48;;;7.82;;
82760;SDS011;72498;42.022;21.444;2024-03-08T02:58:43;20.10;;;8.50;;
82760;SDS011;72498;42.022;21.444;2024-03-08T03:01:13;15.57;;;8.70;;
82760;SDS011;72498;42.022;21.444;2024-03-08T03:03:40;18.70;;;9.10;;
82760;SDS011;72498;42.022;21.444;2024-03-08T03:06:06;18.75;;;9.45;;
82760;SDS011;72498;42.022;21.444;2024-03-08T03:08:33;19.05;;;9.02;;
82760;SDS011;72498;42.022;21.444;2024-03-08T03:10:59;17.70;;;9.27;;
82760;SDS011;72498;42.022;21.444;2024-03-08T03:13:25;19.80;;;9.90;;
82760;SDS011;72498;42.022;21.444;2024-03-08T03:15:51;23.55;;;11.55;;
82760;SDS011;72498;42.022;21.444;2024-03-08T03:18:17;20.85;;;10.82;;
82760;SDS011;72498;42.022;21.444;2024-03-08T03:20:48;23.10;;;10.68;;
82760;SDS011;72498;42.022;21.444;2024-03-08T03:23:15;22.88;;;9.80;;
82760;SDS011;72498;42.022;21.444;2024-03-08T03:25:45;20.73;;;9.35;;
82760;SDS011;72498;42.022;21.444;2024-03-08T03:28:11;19.45;;;9.50;;
82760;SDS011;72498;42.022;21.444;2024-03-08T03:30:42;18.65;;;8.85;;
82760;SDS011;72498;42.022;21.444;2024-03-08T03:33:09;20.67;;;9.07;;
82760;SDS011;72498;42.022;21.444;2024-03-08T03:35:37;21.70;;;9.32;;
82760;SDS011;72498;42.022;21.444;2024-03-08T03:38:04;18.42;;;8.70;;
82760;SDS011;72498;42.022;21.444;2024-03-08T03:40:33;23.58;;;9.88;;
82760;SDS011;72498;42.022;21.444;2024-03-08T03:43:00;20.48;;;9.13;;
82760;SDS011;72498;42.022;21.444;2024-03-08T03:45:26;24.40;;;10.77;;
82760;SDS011;72498;42.022;21.444;2024-03-08T03:47:52;17.48;;;8.30;;
82760;SDS011;72498;42.022;21.444;2024-03-08T03:50:19;20.10;;;9.23;;
82760;SDS011;72498;42.022;21.444;2024-03-08T03:52:46;17.67;;;8.55;;
82760;SDS011;72498;42.022;21.444;2024-03-08T03:55:12;17.77;;;8.15;;
82760;SDS011;72498;42.022;21.444;2024-03-08T03:57:38;14.35;;;7.57;;
82760;SDS011;72498;42.022;21.444;2024-03-08T04:00:05;15.90;;;7.70;;
82760;SDS011;72498;42.022;21.444;2024-03-08T04:02:35;18.08;;;7.93;;
82760;SDS011;72498;42.022;21.444;2024-03-08T04:05:01;13.23;;;7.05;;
82760;SDS011;72498;42.022;21.444;2024-03-08T04:07:27;22.20;;;8.25;;
82760;SDS011;72498;42.022;21.444;2024-03-08T04:09:53;15.95;;;7.85;;
82760;SDS011;72498;42.022;21.444;2024-03-08T04:12:19;18.02;;;8.23;;
82760;SDS011;72498;42.022;21.444;2024-03-08T04:14:46;16.20;;;8.63;;
82760;SDS011;72498;42.022;21.444;2024-03-08T04:17:12;16.80;;;8.02;;
82760;SDS011;72498;42.022;21.444;2024-03-08T04:19:38;22.67;;;8.63;;
82760;SDS011;72498;42.022;21.444;2024-03-08T04:24:34;22.65;;;7.72;;
82760;SDS011;72498;42.022;21.444;2024-03-08T04:27:00;15.82;;;7.68;;
82760;SDS011;72498;42.022;21.444;2024-03-08T04:29:28;15.90;;;8.25;;
82760;SDS011;72498;42.022;21.444;2024-03-08T04:31:54;17.73;;;8.52;;
82760;SDS011;72498;42.022;21.444;2024-03-08T04:34:25;16.00;;;7.85;;
82760;SDS011;72498;42.022;21.444;2024-03-08T04:36:53;20.55;;;9.35;;
82760;SDS011;72498;42.022;21.444;2024-03-08T04:39:20;14.05;;;7.45;;
82760;SDS011;72498;42.022;21.444;2024-03-08T04:41:46;19.60;;;8.98;;
82760;SDS011;72498;42.022;21.444;2024-03-08T04:44:13;19.05;;;8.48;;
82760;SDS011;72498;42.022;21.444;2024-03-08T04:46:40;16.42;;;8.20;;
82760;SDS011;72498;42.022;21.444;2024-03-08T04:49:06;20.33;;;9.30;;
82760;SDS011;72498;42.022;21.444;2024-03-08T04:51:33;25.63;;;10.50;;
82760;SDS011;72498;42.022;21.444;2024-03-08T04:53:59;25.90;;;10.30;;
82760;SDS011;72498;42.022;21.444;2024-03-08T04:56:25;23.42;;;9.05;;
82760;SDS011;72498;42.022;21.444;2024-03-08T04:58:51;14.32;;;6.15;;
82760;SDS011;72498;42.022;21.444;2024-03-08T05:01:18;13.27;;;6.82;;
82760;SDS011;72498;42.022;21.444;2024-03-08T05:03:44;14.45;;;6.72;;
82760;SDS011;72498;42.022;21.444;2024-03-08T05:06:12;14.07;;;7.07;;
82760;SDS011;72498;42.022;21.444;2024-03-08T05:08:38;15.38;;;7.95;;
82760;SDS011;72498;42.022;21.444;2024-03-08T05:11:05;22.88;;;8.10;;
82760;SDS011;72498;42.022;21.444;2024-03-08T05:13:41;13.68;;;7.15;;
82760;SDS011;72498;42.022;21.444;2024-03-08T05:16:12;18.38;;;9.50;;
82760;SDS011;72498;42.022;21.444;2024-03-08T05:18:40;18.65;;;8.35;;
82760;SDS011;72498;42.022;21.444;2024-03-08T05:21:07;20.15;;;10.30;;
82760;SDS011;72498;42.022;21.444;2024-03-08T05:23:36;21.45;;;8.52;;
82760;SDS011;72498;42.022;21.444;2024-03-08T05:26:03;15.57;;;7.25;;
82760;SDS011;72498;42.022;21.444;2024-03-08T05:28:30;18.73;;;8.70;;
82760;SDS011;72498;42.022;21.444;2024-03-08T05:30:56;23.42;;;7.28;;
82760;SDS011;72498;42.022;21.444;2024-03-08T05:33:22;21.25;;;6.93;;
82760;SDS011;72498;42.022;21.444;2024-03-08T05:35:49;16.73;;;7.20;;
82760;SDS011;72498;42.022;21.444;2024-03-08T05:38:18;14.73;;;7.40;;
82760;SDS011;72498;42.022;21.444;2024-03-08T05:40:45;15.20;;;7.28;;
82760;SDS011;72498;42.022;21.444;2024-03-08T05:43:11;18.15;;;8.90;;
82760;SDS011;72498;42.022;21.444;2024-03-08T05:45:37;20.33;;;8.77;;
82760;SDS011;72498;42.022;21.444;2024-03-08T05:48:04;22.10;;;9.50;;
82760;SDS011;72498;42.022;21.444;2024-03-08T05:50:30;24.13;;;11.65;;
82760;SDS011;72498;42.022;21.444;2024-03-08T05:52:56;23.83;;;11.05;;
82760;SDS011;72498;42.022;21.444;2024-03-08T05:55:23;28.35;;;12.50;;
82760;SDS011;72498;42.022;21.444;2024-03-08T05:57:49;28.08;;;12.38;;
82760;SDS011;72498;42.022;21.444;2024-03-08T06:00:19;28.48;;;13.35;;
82760;SDS011;72498;42.022;21.444;2024-03-08T06:02:45;30.02;;;15.05;;
82760;SDS011;72498;42.022;21.444;2024-03-08T06:05:11;27.65;;;14.00;;
82760;SDS011;72498;42.022;21.444;2024-03-08T06:07:37;28.95;;;15.02;;
82760;SDS011;72498;42.022;21.444;2024-03-08T06:10:09;30.23;;;14.75;;
82760;SDS011;72498;42.022;21.444;2024-03-08T06:12:35;25.42;;;14.00;;
82760;SDS011;72498;42.022;21.444;2024-03-08T06:15:08;29.55;;;13.38;;
82760;SDS011;72498;42.022;21.444;2024-03-08T06:17:38;19.90;;;9.88;;
82760;SDS011;72498;42.022;21.444;2024-03-08T06:20:05;24.92;;;9.60;;
82760;SDS011;72498;42.022;21.444;2024-03-08T06:22:44;15.98;;;8.68;;
82760;SDS011;72498;42.022;21.444;2024-03-08T06:25:13;18.83;;;7.82;;
82760;SDS011;72498;42.022;21.444;2024-03-08T06:27:45;18.80;;;7.80;;
82760;SDS011;72498;42.022;21.444;2024-03-08T06:30:13;16.60;;;9.20;;
82760;SDS011;72498;42.022;21.444;2024-03-08T06:32:41;15.63;;;8.07;;
82760;SDS011;72498;42.022;21.444;2024-03-08T06:35:08;16.00;;;7.82;;
82760;SDS011;72498;42.022;21.444;2024-03-08T06:37:35;17.38;;;7.45;;
82760;SDS011;72498;42.022;21.444;2024-03-08T06:45:46;21.13;;;9.57;;
82760;SDS011;72498;42.022;21.444;2024-03-08T06:48:18;18.65;;;9.23;;
82760;SDS011;72498;42.022;21.444;2024-03-08T06:51:07;17.38;;;9.52;;
82760;SDS011;72498;42.022;21.444;2024-03-08T06:54:12;13.85;;;8.15;;
82760;SDS011;72498;42.022;21.444;2024-03-08T06:57:29;16.17;;;8.30;;
82760;SDS011;72498;42.022;21.444;2024-03-08T07:00:01;13.93;;;7.78;;
82760;SDS011;72498;42.022;21.444;2024-03-08T07:02:30;25.33;;;11.50;;
82760;SDS011;72498;42.022;21.444;2024-03-08T07:16:31;17.25;;;7.88;;
82760;SDS011;72498;42.022;21.444;2024-03-08T07:23:04;18.02;;;9.05;;
82760;SDS011;72498;42.022;21.444;2024-03-08T07:28:49;19.38;;;10.18;;
82760;SDS011;72498;42.022;21.444;2024-03-08T07:31:59;17.83;;;8.60;;
82760;SDS011;72498;42.022;21.444;2024-03-08T10:03:29;16.77;;;9.98;;
82760;SDS011;72498;42.022;21.444;2024-03-08T10:24:53;18.73;;;9.18;;
82760;SDS011;72498;42.022;21.444;2024-03-08T10:27:20;15.75;;;9.77;;
82760;SDS011;72498;42.022;21.444;2024-03-08T10:30:07;17.95;;;10.25;;
82760;SDS011;72498;42.022;21.444;2024-03-08T10:32:47;20.08;;;10.30;;
82760;SDS011;72498;42.022;21.444;2024-03-08T10:35:13;15.27;;;8.90;;
82760;SDS011;72498;42.022;21.444;2024-03-08T10:37:46;14.88;;;8.90;;
82760;SDS011;72498;42.022;21.444;2024-03-08T10:40:17;14.70;;;7.68;;
82760;SDS011;72498;42.022;21.444;2024-03-08T10:42:56;15.07;;;8.02;;
82760;SDS011;72498;42.022;21.444;2024-03-08T10:50:41;16.23;;;8.57;;
82760;SDS011;72498;42.022;21.444;2024-03-08T10:53:13;17.15;;;9.40;;
82760;SDS011;72498;42.022;21.444;2024-03-08T10:55:44;15.50;;;8.23;;
82760;SDS011;72498;42.022;21.444;2024-03-08T10:58:11;16.00;;;9.65;;
82760;SDS011;72498;42.022;21.444;2024-03-08T11:00:40;14.13;;;8.48;;
82760;SDS011;72498;42.022;21.444;2024-03-08T11:03:09;15.75;;;8.88;;
82760;SDS011;72498;42.022;21.444;2024-03-08T11:05:54;16.17;;;8.32;;
82760;SDS011;72498;42.022;21.444;2024-03-08T11:08:20;14.80;;;8.35;;
82760;SDS011;72498;42.022;21.444;2024-03-08T11:10:52;15.23;;;7.75;;
82760;SDS011;72498;42.022;21.444;2024-03-08T11:13:46;11.07;;;6.50;;
82760;SDS011;72498;42.022;21.444;2024-03-08T11:19:23;11.60;;;6.25;;
82760;SDS011;72498;42.022;21.444;2024-03-08T11:24:37;11.65;;;6.55;;
82760;SDS011;72498;42.022;21.444;2024-03-08T11:27:11;9.55;;;5.57;;
82760;SDS011;72498;42.022;21.444;2024-03-08T11:29:40;16.20;;;8.23;;
82760;SDS011;72498;42.022;21.444;2024-03-08T11:32:12;14.07;;;6.78;;
82760;SDS011;72498;42.022;21.444;2024-03-08T11:34:48;15.82;;;9.35;;
82760;SDS011;72498;42.022;21.444;2024-03-08T11:37:18;16.75;;;9.10;;
82760;SDS011;72498;42.022;21.444;2024-03-08T11:40:05;13.25;;;6.90;;
82760;SDS011;72498;42.022;21.444;2024-03-08T11:42:45;10.25;;;5.53;;
82760;SDS011;72498;42.022;21.444;2024-03-08T11:45:22;9.75;;;4.88;;
82760;SDS011;72498;42.022;21.444;2024-03-08T11:47:51;9.25;;;5.40;;
82760;SDS011;72498;42.022;21.444;2024-03-08T11:50:23;9.52;;;4.75;;
82760;SDS011;72498;42.022;21.444;2024-03-08T11:53:05;8.95;;;3.90;;
82760;SDS011;72498;42.022;21.444;2024-03-08T11:55:36;8.98;;;4.40;;
82760;SDS011;72498;42.022;21.444;2024-03-08T11:58:04;9.90;;;4.68;;
82760;SDS011;72498;42.022;21.444;2024-03-08T12:00:35;10.13;;;4.00;;
82760;SDS011;72498;42.022;21.444;2024-03-08T12:06:18;9.23;;;4.32;;
82760;SDS011;72498;42.022;21.444;2024-03-08T12:08:51;9.32;;;4.00;;
82760;SDS011;72498;42.022;21.444;2024-03-08T12:11:38;9.20;;;4.78;;
82760;SDS011;72498;42.022;21.444;2024-03-08T12:14:13;10.00;;;4.75;;
82760;SDS011;72498;42.022;21.444;2024-03-08T12:16:51;7.50;;;3.58;;
82760;SDS011;72498;42.022;21.444;2024-03-08T12:19:24;15.52;;;5.18;;
82760;SDS011;72498;42.022;21.444;2024-03-08T12:22:06;7.82;;;3.72;;
82760;SDS011;72498;42.022;21.444;2024-03-08T12:24:44;8.18;;;3.00;;
82760;SDS011;72498;42.022;21.444;2024-03-08T12:27:45;11.73;;;4.60;;
82760;SDS011;72498;42.022;21.444;2024-03-08T12:30:31;8.18;;;3.80;;
82760;SDS011;72498;42.022;21.444;2024-03-08T14:05:22;6.85;;;3.65;;
82760;SDS011;72498;42.022;21.444;2024-03-08T14:07:48;8.38;;;2.70;;
82760;SDS011;72498;42.022;21.444;2024-03-08T14:10:17;7.97;;;2.75;;
82760;SDS011;72498;42.022;21.444;2024-03-08T14:44:35;9.82;;;3.40;;
82760;SDS011;72498;42.022;21.444;2024-03-08T14:47:06;6.25;;;2.88;;
82760;SDS011;72498;42.022;21.444;2024-03-08T14:49:33;6.72;;;2.75;;
82760;SDS011;72498;42.022;21.444;2024-03-08T14:52:02;6.03;;;3.10;;
82760;SDS011;72498;42.022;21.444;2024-03-08T14:54:53;6.72;;;3.00;;
82760;SDS011;72498;42.022;21.444;2024-03-08T14:57:46;8.07;;;3.40;;
82760;SDS011;72498;42.022;21.444;2024-03-08T15:00:47;6.40;;;3.20;;
82760;SDS011;72498;42.022;21.444;2024-03-08T15:27:16;8.50;;;3.63;;
82760;SDS011;72498;42.022;21.444;2024-03-08T15:29:49;8.88;;;4.57;;
82760;SDS011;72498;42.022;21.444;2024-03-08T15:45:27;26.50;;;14.82;;
82760;SDS011;72498;42.022;21.444;2024-03-08T15:47:53;7.40;;;2.88;;
82760;SDS011;72498;42.022;21.444;2024-03-08T15:50:20;11.23;;;3.90;;
82760;SDS011;72498;42.022;21.444;2024-03-08T15:52:52;7.63;;;3.42;;
82760;SDS011;72498;42.022;21.444;2024-03-08T16:06:18;6.82;;;2.78;;
82760;SDS011;72498;42.022;21.444;2024-03-08T16:08:55;8.63;;;2.90;;
82760;SDS011;72498;42.022;21.444;2024-03-08T16:11:22;8.20;;;3.05;;
82760;SDS011;72498;42.022;21.444;2024-03-08T16:13:48;11.90;;;2.72;;
82760;SDS011;72498;42.022;21.444;2024-03-08T16:16:14;8.00;;;3.55;;
82760;SDS011;72498;42.022;21.444;2024-03-08T16:18:42;15.48;;;4.68;;
82760;SDS011;72498;42.022;21.444;2024-03-08T16:23:53;8.73;;;3.70;;
82760;SDS011;72498;42.022;21.444;2024-03-08T16:26:22;10.38;;;3.75;;
82760;SDS011;72498;42.022;21.444;2024-03-08T16:28:49;11.75;;;3.88;;
82760;SDS011;72498;42.022;21.444;2024-03-08T16:36:30;10.32;;;3.60;;
82760;SDS011;72498;42.022;21.444;2024-03-08T16:38:58;8.43;;;3.33;;
82760;SDS011;72498;42.022;21.444;2024-03-08T16:41:28;11.52;;;3.28;;
82760;SDS011;72498;42.022;21.444;2024-03-08T16:44:00;9.48;;;4.03;;
82760;SDS011;72498;42.022;21.444;2024-03-08T16:46:28;12.00;;;4.03;;
82760;SDS011;72498;42.022;21.444;2024-03-08T16:48:58;11.93;;;5.00;;
82760;SDS011;72498;42.022;21.444;2024-03-08T16:51:36;13.18;;;5.40;;
82760;SDS011;72498;42.022;21.444;2024-03-08T16:56:59;8.73;;;4.55;;
82760;SDS011;72498;42.022;21.444;2024-03-08T17:17:40;12.82;;;5.40;;
82760;SDS011;72498;42.022;21.444;2024-03-08T17:20:13;11.63;;;4.43;;
82760;SDS011;72498;42.022;21.444;2024-03-08T17:33:00;20.48;;;9.90;;
82760;SDS011;72498;42.022;21.444;2024-03-08T17:35:33;20.90;;;9.82;;
82760;SDS011;72498;42.022;21.444;2024-03-08T18:04:35;11.45;;;5.63;;
82760;SDS011;72498;42.022;21.444;2024-03-08T18:10:11;10.20;;;5.68;;
82760;SDS011;72498;42.022;21.444;2024-03-08T18:13:16;12.02;;;5.03;;
82760;SDS011;72498;42.022;21.444;2024-03-08T18:15:52;13.02;;;6.25;;
82760;SDS011;72498;42.022;21.444;2024-03-08T18:18:31;14.23;;;5.25;;
82760;SDS011;72498;42.022;21.444;2024-03-08T19:35:07;32.80;;;17.80;;
82760;SDS011;72498;42.022;21.444;2024-03-08T19:37:40;35.03;;;18.65;;
82760;SDS011;72498;42.022;21.444;2024-03-08T19:40:18;35.08;;;18.35;;
82760;SDS011;72498;42.022;21.444;2024-03-08T19:42:58;25.70;;;13.65;;
82760;SDS011;72498;42.022;21.444;2024-03-08T19:56:26;26.17;;;13.43;;
82760;SDS011;72498;42.022;21.444;2024-03-08T19:58:54;25.48;;;11.32;;
82760;SDS011;72498;42.022;21.444;2024-03-08T20:27:20;28.58;;;13.57;;
82760;SDS011;72498;42.022;21.444;2024-03-08T20:29:52;33.92;;;15.05;;
82760;SDS011;72498;42.022;21.444;2024-03-08T20:32:24;33.13;;;14.90;;
82760;SDS011;72498;42.022;21.444;2024-03-08T23:47:31;38.97;;;19.48;;
82760;SDS011;72498;42.022;21.444;2024-03-08T23:50:24;37.72;;;18.38;;
82760;SDS011;72498;42.022;21.444;2024-03-08T23:53:13;40.15;;;20.25;;
82760;SDS011;72498;42.022;21.444;2024-03-08T23:55:41;34.72;;;18.50;;
82760;SDS011;72498;42.022;21.444;2024-03-08T23:58:11;33.85;;;17.02;;
